Nocc Pamplona — LALG5 — position and weather

sailwx.info

Track history (hours):
 
Tides and Currents Weather Stations Pressure Air Temp Water Temp Dewpoint Dewpoint Depression Visibility Wind Speed Wind Dir Waves Ship Positions

Nocc Pamplona

Last reported at 2014-Nov-19 07:29 UTC. Time now 2014-Nov-23 18:56 UTC.
Position N 01°11' E 103°40'.

Length 177 m; draft 8.6 m.

Type: Cargo ship. MMSI: 257349000.

Date/timePositionNaut miles runAvg speedWind from/ knotsBaromVisibWave heightAir tempDewpointWater temp
2014-Nov-19 07:29N 01°11' E 103°40'1212.4
2014-Nov-19 06:33N 01°12' E 103°51'5 4.6
2014-Nov-19 05:32N 01°16' E 103°54'0 0.0
2014-Nov-19 04:20N 01°16' E 103°54'0 0.1
2014-Nov-19 03:14N 01°16' E 103°54'0 0.0
2014-Nov-19 01:23N 01°16' E 103°54'0 0.0
2014-Nov-19 00:32N 01°16' E 103°54'0 0.0
2014-Nov-18 20:32N 01°16' E 103°54'2 2.4
2014-Nov-18 19:33N 01°13' E 103°53'3 2.8
2014-Nov-18 18:33N 01°14' E 103°56'9 9.1
2014-Nov-18 17:33N 01°16' E 104°05'1210.1
2014-Nov-18 16:23N 01°18' E 104°16'  
2014-Nov-10 09:27N 34°58' E 139°40'1415.8
2014-Nov-10 08:33N 35°12' E 139°46'1312.6
2014-Nov-10 07:33N 35°24' E 139°43'3 3.2
2014-Nov-10 06:31N 35°27' E 139°41'0 0.0
2014-Nov-10 05:31N 35°27' E 139°41'0 0.0
2014-Nov-10 04:31N 35°27' E 139°41'0 0.0
2014-Nov-10 03:31N 35°27' E 139°41'0 0.0
2014-Nov-10 02:31N 35°27' E 139°41'0 0.0
2014-Nov-10 01:31N 35°27' E 139°41'0 0.0
2014-Nov-10 00:28N 35°27' E 139°41'0 0.0
2014-Nov-09 23:31N 35°27' E 139°41'0 0.0
2014-Nov-09 22:31N 35°27' E 139°41'0 0.0
2014-Nov-09 21:31N 35°27' E 139°41'0 0.0
2014-Nov-09 20:31N 35°27' E 139°41'0 0.0
2014-Nov-09 19:31N 35°27' E 139°41'0 0.0
2014-Nov-09 18:31N 35°27' E 139°41'0 0.0
2014-Nov-09 17:31N 35°27' E 139°41'0 0.0
2014-Nov-09 16:31N 35°27' E 139°41'0 0.0
2014-Nov-09 15:31N 35°27' E 139°41'0 0.0
2014-Nov-09 14:31N 35°27' E 139°41'0 0.0
2014-Nov-09 13:31N 35°27' E 139°41'0 0.0
2014-Nov-09 12:31N 35°27' E 139°41'0 0.0
2014-Nov-09 11:31N 35°27' E 139°41'0 0.0
2014-Nov-09 10:31N 35°27' E 139°41'0 0.0
2014-Nov-09 09:31N 35°27' E 139°41'0 0.0
2014-Nov-09 08:31N 35°27' E 139°41'0 0.0
2014-Nov-09 07:31N 35°27' E 139°41'  
Track history (hours):
 
Tides and Currents Weather Stations Pressure Air Temp Water Temp Dewpoint Dewpoint Depression Visibility Wind Speed Wind Dir Waves Ship Positions

Nocc Pamplona

Last reported at 2014-Nov-19 07:29 UTC. Time now 2014-Nov-23 18:56 UTC.
Position N 01°11' E 103°40'.

Length 177 m; draft 8.6 m.

Type: Cargo ship. MMSI: 257349000.

Date/timePositionNaut miles runAvg speedWind from/ knotsBaromVisibWave heightAir tempDewpointWater temp
2014-Nov-19 07:29N 01°11' E 103°40'1212.4
2014-Nov-19 06:33N 01°12' E 103°51'5 4.6
2014-Nov-19 05:32N 01°16' E 103°54'0 0.0
2014-Nov-19 04:20N 01°16' E 103°54'0 0.1
2014-Nov-19 03:14N 01°16' E 103°54'0 0.0
2014-Nov-19 01:23N 01°16' E 103°54'0 0.0
2014-Nov-19 00:32N 01°16' E 103°54'0 0.0
2014-Nov-18 20:32N 01°16' E 103°54'2 2.4
2014-Nov-18 19:33N 01°13' E 103°53'3 2.8
2014-Nov-18 18:33N 01°14' E 103°56'9 9.1
2014-Nov-18 17:33N 01°16' E 104°05'1210.1
2014-Nov-18 16:23N 01°18' E 104°16'  
2014-Nov-10 09:27N 34°58' E 139°40'1415.8
2014-Nov-10 08:33N 35°12' E 139°46'1312.6
2014-Nov-10 07:33N 35°24' E 139°43'3 3.2
2014-Nov-10 06:31N 35°27' E 139°41'0 0.0
2014-Nov-10 05:31N 35°27' E 139°41'0 0.0
2014-Nov-10 04:31N 35°27' E 139°41'0 0.0
2014-Nov-10 03:31N 35°27' E 139°41'0 0.0
2014-Nov-10 02:31N 35°27' E 139°41'0 0.0
2014-Nov-10 01:31N 35°27' E 139°41'0 0.0
2014-Nov-10 00:28N 35°27' E 139°41'0 0.0
2014-Nov-09 23:31N 35°27' E 139°41'0 0.0
2014-Nov-09 22:31N 35°27' E 139°41'0 0.0
2014-Nov-09 21:31N 35°27' E 139°41'0 0.0
2014-Nov-09 20:31N 35°27' E 139°41'0 0.0
2014-Nov-09 19:31N 35°27' E 139°41'0 0.0
2014-Nov-09 18:31N 35°27' E 139°41'0 0.0
2014-Nov-09 17:31N 35°27' E 139°41'0 0.0
2014-Nov-09 16:31N 35°27' E 139°41'0 0.0
2014-Nov-09 15:31N 35°27' E 139°41'0 0.0
2014-Nov-09 14:31N 35°27' E 139°41'0 0.0
2014-Nov-09 13:31N 35°27' E 139°41'0 0.0
2014-Nov-09 12:31N 35°27' E 139°41'0 0.0
2014-Nov-09 11:31N 35°27' E 139°41'0 0.0
2014-Nov-09 10:31N 35°27' E 139°41'0 0.0
2014-Nov-09 09:31N 35°27' E 139°41'0 0.0
2014-Nov-09 08:31N 35°27' E 139°41'0 0.0
2014-Nov-09 07:31N 35°27' E 139°41'  

Dump ship's entire track history